Time;durP1;ratioP1;P1;durP2;ratioP2;P2;SDS_P1;SDS_P2;PMS_P1;PMS_P2;Temp;Humidity;BMP_temperature;BMP_pressure;BME280_temperature;BME280_humidity;BME280_pressure;Samples;Min_cycle;Max_cycle;Signal;HPM_P1;HPM_P2
2022/07/03 00:02:17;;;;;;;8.98;4.50;;;;;;;20.17;51.74;100002.56;6187199;23;20366;-76
2022/07/03 00:04:44;;;;;;;12.80;5.22;;;;;;;20.13;52.30;99997.47;6183177;23;20336;-77
2022/07/03 00:07:10;;;;;;;9.65;4.85;;;;;;;20.09;52.82;99993.25;6183755;23;20485;-76
2022/07/03 00:09:37;;;;;;;9.98;4.60;;;;;;;20.06;53.07;99981.03;6184006;23;20340;-77
2022/07/03 00:12:04;;;;;;;11.45;5.65;;;;;;;20.01;53.05;99972.47;6183747;23;20101;-78
2022/07/03 00:14:31;;;;;;;7.43;4.75;;;;;;;20.00;53.02;99983.94;6184421;23;20017;-78
2022/07/03 00:16:58;;;;;;;8.85;4.63;;;;;;;19.88;53.49;99972.16;6184185;23;20017;-76
2022/07/03 00:19:24;;;;;;;8.27;4.97;;;;;;;19.85;53.98;99975.78;6183758;23;20058;-77
2022/07/03 00:22:00;;;;;;;12.32;5.63;;;;;;;19.74;54.24;99967.50;6182119;23;20455;-76
2022/07/03 00:24:29;;;;;;;8.35;4.90;;;;;;;19.66;54.71;99959.03;6188732;23;20017;-77
2022/07/03 00:26:58;;;;;;;10.15;5.38;;;;;;;19.60;54.67;99961.94;6185129;23;20481;-76
2022/07/03 00:29:31;;;;;;;11.27;4.95;;;;;;;19.46;54.95;99958.13;6184642;23;20017;-76
2022/07/03 00:31:58;;;;;;;11.43;4.80;;;;;;;19.30;55.20;99957.09;6159411;23;20019;-76
2022/07/03 00:34:25;;;;;;;9.10;4.85;;;;;;;19.25;55.71;99958.13;6185784;23;20092;-77
2022/07/03 00:36:52;;;;;;;7.22;4.70;;;;;;;19.17;55.92;99949.69;6185706;23;20048;-74
2022/07/03 00:39:18;;;;;;;9.80;4.88;;;;;;;19.12;56.33;99954.28;6188238;23;20027;-76
2022/07/03 00:41:48;;;;;;;7.72;4.78;;;;;;;19.09;56.60;99951.78;6195924;23;20020;-76
2022/07/03 00:44:14;;;;;;;9.75;4.70;;;;;;;18.93;56.66;99941.84;6162019;23;20017;-77
2022/07/03 00:46:41;;;;;;;7.60;5.65;;;;;;;18.89;57.18;99968.41;6136933;23;20024;-76
2022/07/03 00:49:10;;;;;;;8.38;5.60;;;;;;;18.80;57.45;99965.22;6161425;23;20021;-76
2022/07/03 00:51:40;;;;;;;10.90;6.50;;;;;;;18.71;57.69;99967.34;6164355;23;20354;-77
2022/07/03 00:54:08;;;;;;;10.85;7.30;;;;;;;18.61;58.17;99961.59;6188066;23;20099;-77
2022/07/03 00:56:38;;;;;;;11.23;5.45;;;;;;;18.47;58.63;99955.09;6187021;23;20012;-76
2022/07/03 00:59:04;;;;;;;10.05;5.32;;;;;;;18.41;59.08;99957.97;6188547;23;20040;-75
2022/07/03 01:01:34;;;;;;;14.02;6.20;;;;;;;18.33;59.43;99960.91;6189722;23;20039;-76
2022/07/03 01:04:09;;;;;;;9.43;6.20;;;;;;;18.28;59.93;99969.91;6183892;23;20092;-76
2022/07/03 01:06:44;;;;;;;11.15;6.60;;;;;;;18.18;60.14;99964.13;6157509;23;20111;-75
2022/07/03 01:09:11;;;;;;;12.75;6.30;;;;;;;18.11;60.70;99962.63;6181872;23;20144;-77
2022/07/03 01:12:02;;;;;;;15.07;6.72;;;;;;;17.95;60.87;99947.41;6182474;23;20013;-76
2022/07/03 01:14:39;;;;;;;13.63;6.53;;;;;;;17.92;61.21;99950.97;6184210;23;20024;-75
2022/07/03 01:17:11;;;;;;;10.40;6.63;;;;;;;17.96;61.45;99962.28;6182425;23;20112;-75
2022/07/03 01:19:41;;;;;;;12.43;6.55;;;;;;;17.93;61.39;99957.13;6183844;23;20027;-78
2022/07/03 01:22:36;;;;;;;11.90;6.38;;;;;;;17.92;61.60;99958.03;6182263;23;20460;-75
2022/07/03 01:25:10;;;;;;;12.68;6.22;;;;;;;17.89;61.67;99951.09;6182719;23;20102;-78
2022/07/03 01:28:06;;;;;;;14.02;6.88;;;;;;;17.86;61.72;99955.63;6182325;23;20394;-77
2022/07/03 01:30:54;;;;;;;13.07;6.55;;;;;;;17.84;61.72;99952.19;6182282;23;20393;-76
2022/07/03 01:33:23;;;;;;;10.63;6.60;;;;;;;17.81;61.76;99952.28;6183110;23;20017;-77
2022/07/03 01:36:01;;;;;;;11.27;6.15;;;;;;;17.87;61.69;99954.69;6183297;23;20044;-77
2022/07/03 01:38:29;;;;;;;10.63;5.97;;;;;;;17.87;61.65;99954.69;6183040;23;20016;-77
2022/07/03 01:40:56;;;;;;;10.43;6.65;;;;;;;17.94;61.65;99964.09;6157313;23;20036;-78
2022/07/03 01:43:38;;;;;;;14.52;6.18;;;;;;;17.98;61.26;99952.59;6183408;23;20091;-75
2022/07/03 01:46:05;;;;;;;13.35;6.22;;;;;;;17.98;61.29;99952.59;6156960;23;20025;-78
2022/07/03 01:48:33;;;;;;;14.65;6.60;;;;;;;18.05;61.23;99959.31;6183726;23;20016;-76
2022/07/03 01:50:59;;;;;;;10.93;6.05;;;;;;;18.05;61.18;99954.03;6182034;23;20332;-77
2022/07/03 01:53:28;;;;;;;12.80;6.68;;;;;;;18.05;61.15;99951.41;6183107;23;20016;-78
2022/07/03 01:55:59;;;;;;;12.55;5.82;;;;;;;18.03;61.15;99941.88;6183153;23;20104;-76
2022/07/03 01:58:26;;;;;;;11.88;6.43;;;;;;;18.11;61.23;99952.94;6181826;23;20025;-76
2022/07/03 02:01:21;;;;;;;10.43;6.35;;;;;;;18.15;61.13;99949.28;6156471;23;20021;-78
2022/07/03 02:04:01;;;;;;;12.48;6.78;;;;;;;18.16;61.23;99951.00;6141197;23;20083;-77
2022/07/03 02:06:41;;;;;;;13.32;5.95;;;;;;;18.18;61.16;99951.81;6183480;23;20039;-77
2022/07/03 02:09:10;;;;;;;10.13;5.88;;;;;;;18.19;61.11;99952.69;6181341;23;20024;-77
2022/07/03 02:11:39;;;;;;;9.55;6.30;;;;;;;18.21;61.17;99950.81;6181794;23;20067;-78
2022/07/03 02:14:18;;;;;;;11.40;6.07;;;;;;;18.27;61.33;99955.88;6180703;23;20021;-78
2022/07/03 02:16:50;;;;;;;10.20;6.35;;;;;;;18.31;61.16;99951.38;6156853;23;20013;-76
2022/07/03 02:19:19;;;;;;;8.82;5.85;;;;;;;18.27;61.16;99934.78;6132878;23;20063;-77
2022/07/03 02:21:51;;;;;;;12.00;6.05;;;;;;;18.39;61.18;99948.44;6183937;23;20051;-76
2022/07/03 02:24:25;;;;;;;10.52;5.88;;;;;;;18.49;61.12;99944.50;6180647;23;20359;-77
2022/07/03 02:27:02;;;;;;;14.35;6.60;;;;;;;18.54;61.07;99942.53;6182788;23;20032;-77
2022/07/03 02:29:46;;;;;;;13.20;6.22;;;;;;;18.63;60.98;99942.19;6180688;23;20594;-78
2022/07/03 02:32:17;;;;;;;12.63;6.55;;;;;;;18.72;60.99;99942.72;6182295;23;20039;-77
2022/07/03 02:34:47;;;;;;;10.95;6.43;;;;;;;18.78;60.92;99934.56;6182438;23;20017;-76
2022/07/03 02:37:22;;;;;;;9.95;6.30;;;;;;;18.89;60.68;99931.50;6182328;23;20089;-77
2022/07/03 02:40:06;;;;;;;12.10;6.40;;;;;;;19.07;60.66;99932.53;6183832;23;20024;-78
2022/07/03 02:42:42;;;;;;;8.52;5.50;;;;;;;19.16;60.18;99918.94;6189540;23;20023;-75
2022/07/03 02:45:10;;;;;;;6.95;4.60;;;;;;;19.33;59.68;99915.59;6205512;23;20025;-76
2022/07/03 02:47:39;;;;;;;7.55;5.00;;;;;;;19.48;59.19;99927.25;6184191;23;20017;-76
2022/07/03 02:50:11;;;;;;;7.93;4.88;;;;;;;19.58;58.80;99925.06;6181557;23;20027;-75
2022/07/03 02:52:44;;;;;;;9.38;4.93;;;;;;;19.76;58.36;99923.38;6181153;23;20087;-77
2022/07/03 02:55:37;;;;;;;8.57;4.88;;;;;;;19.90;57.48;99925.41;6181100;23;20013;-78
2022/07/03 02:58:31;;;;;;;11.02;4.57;;;;;;;20.01;57.29;99927.56;6181346;23;20021;-76
2022/07/03 03:01:06;;;;;;;9.25;4.93;;;;;;;20.11;56.82;99915.66;6182756;23;20144;-79
2022/07/03 03:03:33;;;;;;;7.18;4.60;;;;;;;20.21;56.34;99912.56;6133387;23;20017;-76
2022/07/03 03:06:07;;;;;;;5.63;4.25;;;;;;;20.36;56.25;99919.78;6156860;23;20020;-76
2022/07/03 03:08:41;;;;;;;6.97;4.63;;;;;;;20.51;55.84;99920.84;6156691;23;20024;-76
2022/07/03 03:11:21;;;;;;;7.65;4.32;;;;;;;20.61;55.42;99916.81;6181120;23;20079;-75
2022/07/03 03:13:53;;;;;;;6.10;4.28;;;;;;;20.76;55.18;99909.94;6156422;23;20016;-76
2022/07/03 03:16:19;;;;;;;6.10;3.83;;;;;;;20.93;54.55;99918.81;6187652;23;20017;-77
2022/07/03 03:18:47;;;;;;;7.47;4.38;;;;;;;20.99;54.23;99912.34;6159713;23;20016;-77
2022/07/03 03:21:17;;;;;;;6.45;4.30;;;;;;;21.15;54.05;99907.16;6185019;23;20048;-75
2022/07/03 03:23:51;;;;;;;5.45;4.20;;;;;;;21.29;53.49;99907.31;6184498;23;20359;-76
2022/07/03 03:26:23;;;;;;;7.50;4.68;;;;;;;21.41;53.01;99908.44;6184156;23;20020;-77
2022/07/03 03:28:51;;;;;;;5.78;3.97;;;;;;;21.57;52.82;99915.59;6158118;23;20017;-75
2022/07/03 03:31:18;;;;;;;5.80;4.20;;;;;;;21.65;52.46;99906.34;6158269;23;20473;-76
2022/07/03 03:33:47;;;;;;;6.63;4.05;;;;;;;21.81;52.23;99908.16;6185341;23;20343;-78
2022/07/03 03:36:16;;;;;;;7.22;4.82;;;;;;;21.96;52.04;99904.66;6183002;23;20021;-76
2022/07/03 03:38:43;;;;;;;8.38;4.40;;;;;;;22.10;51.72;99903.06;6184341;23;20017;-76
2022/07/03 03:41:09;;;;;;;10.07;4.40;;;;;;;22.26;51.73;99905.72;6182224;23;20016;-76
2022/07/03 03:43:37;;;;;;;5.70;4.40;;;;;;;22.46;51.28;99909.91;6157878;23;20017;-75
2022/07/03 03:46:03;;;;;;;7.38;4.20;;;;;;;22.64;50.48;99908.00;6182433;23;20032;-76
2022/07/03 03:48:33;;;;;;;6.40;4.20;;;;;;;22.69;50.65;99882.09;6184034;23;20670;-77
2022/07/03 03:51:01;;;;;;;9.13;4.80;;;;;;;22.90;50.18;99891.50;6184386;23;20012;-77
2022/07/03 03:53:29;;;;;;;5.72;4.45;;;;;;;23.06;49.68;99899.41;6184705;23;20024;-77
2022/07/03 03:56:06;;;;;;;7.78;5.18;;;;;;;23.19;49.71;99897.72;6182160;23;20107;-77
2022/07/03 03:58:36;;;;;;;7.53;4.90;;;;;;;23.39;49.26;99885.94;6185240;23;20040;-76
2022/07/03 04:01:04;;;;;;;8.55;5.55;;;;;;;23.57;48.39;99889.28;6191409;23;20020;-76
2022/07/03 04:03:32;;;;;;;7.35;5.28;;;;;;;23.71;48.03;99883.09;6166586;23;20017;-77
2022/07/03 04:05:58;;;;;;;9.30;5.45;;;;;;;23.88;47.63;99879.38;6188566;23;20021;-76
2022/07/03 04:08:25;;;;;;;6.60;5.20;;;;;;;24.02;47.34;99875.03;6189068;23;20008;-75
2022/07/03 04:10:52;;;;;;;7.13;5.00;;;;;;;24.06;46.89;99864.09;6189023;23;20025;-76
2022/07/03 04:13:21;;;;;;;6.75;5.22;;;;;;;24.32;46.57;99877.50;6161715;23;20021;-77
2022/07/03 04:15:49;;;;;;;6.82;4.90;;;;;;;24.37;46.31;99869.22;6195601;23;20072;-76
2022/07/03 04:18:15;;;;;;;5.35;4.63;;;;;;;24.50;46.22;99869.25;6209327;23;20029;-77
2022/07/03 04:20:41;;;;;;;8.05;4.80;;;;;;;24.54;45.75;99867.25;6198050;23;20017;-76
2022/07/03 04:23:08;;;;;;;8.23;4.90;;;;;;;24.63;45.46;99871.97;6183412;23;20462;-76
2022/07/03 04:25:34;;;;;;;9.25;5.20;;;;;;;24.78;45.39;99878.94;6158561;23;20020;-76
2022/07/03 04:28:00;;;;;;;6.90;4.95;;;;;;;24.89;45.02;99875.56;6184386;23;20481;-76
2022/07/03 04:30:27;;;;;;;6.68;4.50;;;;;;;25.00;45.02;99887.28;6184035;23;20021;-76
2022/07/03 04:32:53;;;;;;;8.18;4.78;;;;;;;25.06;44.99;99877.06;6182897;23;20047;-77
2022/07/03 04:35:19;;;;;;;8.48;5.20;;;;;;;25.22;44.57;99886.66;6182769;23;20029;-78
2022/07/03 04:37:46;;;;;;;8.68;4.85;;;;;;;25.30;44.29;99870.16;6182123;23;20024;-77
2022/07/03 04:40:13;;;;;;;8.95;5.15;;;;;;;25.51;44.02;99881.16;6182444;23;20025;-78
2022/07/03 04:42:39;;;;;;;6.63;4.88;;;;;;;25.58;43.68;99886.91;6182644;23;20013;-75
2022/07/03 04:45:07;;;;;;;7.43;5.32;;;;;;;25.58;43.33;99877.13;6184201;23;20017;-77
2022/07/03 04:47:33;;;;;;;8.32;4.47;;;;;;;25.76;43.49;99880.25;6183853;23;20076;-77
2022/07/03 04:49:59;;;;;;;8.27;5.25;;;;;;;25.93;42.75;99883.56;6182441;23;20581;-78
2022/07/03 04:52:25;;;;;;;8.15;4.90;;;;;;;25.97;42.66;99872.53;6133672;23;20343;-77
2022/07/03 04:54:51;;;;;;;11.00;5.20;;;;;;;26.13;42.57;99872.31;6182708;23;20021;-78
2022/07/03 04:57:17;;;;;;;6.47;4.97;;;;;;;26.35;42.60;99884.06;6182198;23;20100;-78
2022/07/03 04:59:44;;;;;;;10.35;5.28;;;;;;;26.51;41.91;99880.25;6184236;23;20036;-78
2022/07/03 05:02:10;;;;;;;6.85;5.00;;;;;;;26.60;42.09;99888.41;6157316;23;20499;-77
2022/07/03 05:04:36;;;;;;;9.82;4.82;;;;;;;26.65;41.47;99874.72;6186750;23;20028;-78
2022/07/03 05:07:02;;;;;;;11.10;5.45;;;;;;;26.84;41.74;99876.91;6185469;23;20024;-76
2022/07/03 05:09:28;;;;;;;13.57;7.05;;;;;;;26.89;41.01;99865.88;6182954;23;20092;-76
2022/07/03 05:11:54;;;;;;;10.43;8.32;;;;;;;27.00;41.25;99857.91;6181923;23;20048;-77
2022/07/03 05:14:23;;;;;;;7.93;5.10;;;;;;;27.11;41.18;99850.84;6182160;23;20099;-77
2022/07/03 05:16:50;;;;;;;8.50;5.47;;;;;;;27.24;41.05;99851.63;6157977;23;20027;-76
2022/07/03 05:19:16;;;;;;;10.05;5.57;;;;;;;27.40;40.58;99861.94;6157836;23;20021;-76
2022/07/03 05:21:41;;;;;;;6.38;5.25;;;;;;;27.58;40.05;99864.16;6185211;23;20013;-76
2022/07/03 05:24:08;;;;;;;8.45;6.15;;;;;;;27.65;39.95;99854.66;6186714;23;20120;-77
2022/07/03 05:26:34;;;;;;;6.55;5.30;;;;;;;27.80;39.96;99855.25;6186056;23;20012;-78
2022/07/03 05:29:00;;;;;;;13.75;6.20;;;;;;;27.95;39.42;99866.53;6185333;23;20073;-77
2022/07/03 05:31:26;;;;;;;6.40;5.72;;;;;;;27.94;39.73;99859.50;6193750;23;20028;-76
2022/07/03 05:33:52;;;;;;;12.07;6.70;;;;;;;28.01;39.87;99859.84;6197148;23;20001;-77
2022/07/03 05:36:18;;;;;;;7.63;5.55;;;;;;;28.13;39.31;99869.59;6163649;23;20099;-76
2022/07/03 05:41:29;;;;;;;9.02;6.75;;;;;;;28.37;38.81;99863.16;6182829;23;20013;-77
2022/07/03 05:43:55;;;;;;;11.10;7.35;;;;;;;28.48;38.58;99864.94;6158021;23;20103;-78
2022/07/03 05:46:21;;;;;;;12.98;8.88;;;;;;;28.60;38.51;99860.41;6182847;23;20009;-77
2022/07/03 05:48:47;;;;;;;10.95;8.82;;;;;;;28.69;38.71;99863.16;6157269;23;20020;-76
2022/07/03 05:51:14;;;;;;;17.35;10.70;;;;;;;28.88;38.30;99855.44;6133261;23;20017;-78
2022/07/03 05:53:40;;;;;;;7.80;6.00;;;;;;;29.35;37.95;99846.97;6184303;23;20408;-77
2022/07/03 05:56:06;;;;;;;11.23;6.78;;;;;;;30.41;37.24;99849.22;6182607;23;20021;-79
2022/07/03 05:58:32;;;;;;;9.05;6.30;;;;;;;32.19;35.74;99845.84;6157165;23;20024;-78
2022/07/03 06:00:58;;;;;;;5.82;5.15;;;;;;;34.43;32.61;99834.47;6157981;23;20020;-78
2022/07/03 06:03:24;;;;;;;9.05;5.78;;;;;;;36.50;30.04;99827.44;6185248;23;20147;-79
2022/07/03 06:05:51;;;;;;;5.35;4.85;;;;;;;38.10;27.75;99836.13;6134956;23;20101;-76
2022/07/03 06:08:17;;;;;;;6.85;5.85;;;;;;;39.58;26.09;99821.75;6157426;23;20536;-79
2022/07/03 06:10:42;;;;;;;7.18;5.78;;;;;;;40.98;24.36;99829.47;6158807;23;20027;-78
2022/07/03 06:13:08;;;;;;;9.05;5.40;;;;;;;41.98;22.82;99825.53;6186563;23;20016;-80
2022/07/03 06:15:34;;;;;;;8.10;6.63;;;;;;;42.96;21.36;99828.72;6183972;23;20013;-78
2022/07/03 06:18:00;;;;;;;8.10;4.90;;;;;;;43.31;20.64;99839.06;6182727;23;20391;-79
2022/07/03 06:20:30;;;;;;;6.68;5.18;;;;;;;44.09;20.11;99830.28;6186742;23;20024;-80
2022/07/03 06:22:56;;;;;;;;;;;;;;;45.11;19.45;99835.72;6186673;23;20336;-78
2022/07/03 06:25:22;;;;;;;8.68;5.13;;;;;;;45.68;18.92;99837.75;6160811;23;19912;-77
2022/07/03 06:27:48;;;;;;;7.00;5.20;;;;;;;46.28;17.81;99834.66;6182376;23;20091;-76
2022/07/03 06:30:14;;;;;;;7.30;5.05;;;;;;;47.01;17.10;99840.19;6158262;23;20078;-78
2022/07/03 06:32:41;;;;;;;6.30;5.28;;;;;;;47.60;16.21;99844.22;6184909;23;20012;-76
2022/07/03 06:35:09;;;;;;;7.60;5.33;;;;;;;48.25;15.36;99836.03;6182910;23;20020;-77
2022/07/03 06:37:38;;;;;;;8.15;5.80;;;;;;;48.90;14.84;99837.03;6181350;23;20016;-78
2022/07/03 06:40:08;;;;;;;5.85;5.35;;;;;;;49.44;14.22;99841.44;6181369;23;20020;-77
2022/07/03 06:42:45;;;;;;;6.13;5.63;;;;;;;49.98;13.53;99829.13;6182760;23;20403;-77
2022/07/03 06:45:15;;;;;;;5.88;5.38;;;;;;;50.60;13.17;99829.13;6156373;23;20027;-80
2022/07/03 06:47:41;;;;;;;;;;;;;;;50.66;13.04;99837.38;6157745;23;20024;-81
2022/07/03 06:50:08;;;;;;;8.93;6.43;;;;;;;50.89;12.98;99828.47;6133774;23;20245;-81
2022/07/03 06:52:46;;;;;;;10.15;9.18;;;;;;;51.08;12.49;99838.94;6182806;23;20020;-77
2022/07/03 06:55:16;;;;;;;19.93;18.10;;;;;;;51.59;12.14;99848.97;6158041;23;20075;-79
2022/07/03 06:57:43;;;;;;;14.88;13.45;;;;;;;51.75;11.46;99849.69;6157387;23;20041;-78
2022/07/03 07:00:13;;;;;;;9.63;8.27;;;;;;;51.70;11.34;99849.72;6157143;23;20107;-79
2022/07/03 07:02:41;;;;;;;10.65;6.75;;;;;;;51.85;11.50;99851.56;6134229;23;20020;-78
2022/07/03 07:05:10;;;;;;;5.75;4.70;;;;;;;52.14;11.19;99847.19;6185448;23;20019;-78
2022/07/03 07:07:41;;;;;;;5.25;4.75;;;;;;;52.48;10.91;99838.84;6186056;23;20052;-78
2022/07/03 07:10:08;;;;;;;7.68;6.13;;;;;;;52.87;10.43;99837.00;6163677;23;20024;-78
2022/07/03 07:12:35;;;;;;;6.35;5.50;;;;;;;52.59;9.97;99792.41;6193766;23;20016;-78
2022/07/03 07:15:04;;;;;;;6.32;5.78;;;;;;;53.32;10.09;99842.31;6163026;23;20071;-77
2022/07/03 07:17:30;;;;;;;7.05;6.00;;;;;;;53.53;9.96;99834.50;6185651;23;20024;-79
2022/07/03 07:19:56;;;;;;;23.25;21.35;;;;;;;53.82;9.31;99841.88;6187149;23;20021;-80
2022/07/03 07:22:34;;;;;;;10.82;9.82;;;;;;;54.09;9.29;99840.34;6183544;23;20475;-79
2022/07/03 07:25:02;;;;;;;10.43;9.25;;;;;;;54.32;9.29;99840.50;6185506;23;20344;-77
2022/07/03 07:27:32;;;;;;;5.95;5.55;;;;;;;54.17;9.20;99841.59;6183509;23;20017;-79
2022/07/03 07:29:58;;;;;;;7.03;6.10;;;;;;;53.93;8.82;99830.59;6185273;23;20017;-77
2022/07/03 07:32:24;;;;;;;5.72;5.20;;;;;;;53.99;8.75;99826.59;6182701;23;20366;-77
2022/07/03 07:34:53;;;;;;;7.45;5.70;;;;;;;53.90;8.72;99838.41;6185132;23;20016;-76
2022/07/03 07:37:19;;;;;;;5.40;4.88;;;;;;;54.16;8.53;99840.78;6183672;23;20020;-77
2022/07/03 07:39:46;;;;;;;8.00;6.05;;;;;;;54.57;8.56;99835.59;6134821;23;20400;-80
2022/07/03 07:42:13;;;;;;;7.68;5.53;;;;;;;54.89;8.44;99826.31;6133702;23;20013;-77
2022/07/03 07:44:38;;;;;;;6.05;4.90;;;;;;;55.03;8.34;99820.75;6158953;23;20044;-80
2022/07/03 07:47:05;;;;;;;7.47;5.35;;;;;;;55.08;8.02;99828.16;6185671;23;20025;-78
2022/07/03 07:49:31;;;;;;;6.35;5.50;;;;;;;55.03;8.14;99820.75;6186093;23;20411;-77
2022/07/03 07:51:57;;;;;;;6.25;5.13;;;;;;;55.16;8.10;99824.66;6184191;23;20028;-77
2022/07/03 07:54:23;;;;;;;5.60;5.07;;;;;;;53.80;8.25;99830.22;6200904;23;20016;-77
2022/07/03 07:56:51;;;;;;;6.88;5.13;;;;;;;53.75;8.10;99825.56;6203206;23;20020;-77
2022/07/03 07:59:22;;;;;;;6.72;5.70;;;;;;;54.17;8.00;99822.09;6182881;23;20025;-77
2022/07/03 08:07:29;;;;;;;5.32;4.93;;;;;;;51.73;9.33;99815.88;6184875;23;20132;-78
2022/07/03 08:09:57;;;;;;;5.45;5.05;;;;;;;50.23;9.96;99819.16;6158402;23;20091;-78
2022/07/03 08:12:23;;;;;;;4.85;4.53;;;;;;;50.98;9.81;99812.13;6133663;23;20024;-78
2022/07/03 08:14:49;;;;;;;6.05;5.47;;;;;;;52.17;8.43;99814.13;6183761;23;20021;-78
2022/07/03 08:17:16;;;;;;;6.03;5.45;;;;;;;53.05;8.81;99823.50;6160258;23;20048;-78
2022/07/03 08:19:45;;;;;;;7.03;5.20;;;;;;;51.76;9.42;99825.56;6193115;23;20013;-76
2022/07/03 08:22:11;;;;;;;;;;;;;;;50.97;9.77;99818.78;6169981;23;20012;-76
2022/07/03 08:24:42;;;;;;;6.25;5.65;;;;;;;51.50;9.78;99818.25;6222967;23;20318;-78
2022/07/03 08:27:11;;;;;;;5.93;5.40;;;;;;;52.63;8.70;99809.28;6195934;23;20028;-77
2022/07/03 08:29:40;;;;;;;;;;;;;;;53.46;8.35;99803.50;6184654;23;20016;-77
2022/07/03 08:32:09;;;;;;;5.90;4.97;;;;;;;54.15;8.28;99822.44;6184645;23;19916;-79
2022/07/03 08:34:37;;;;;;;5.93;5.43;;;;;;;54.74;7.69;99823.84;6184258;23;20075;-77
2022/07/03 08:37:03;;;;;;;5.75;5.28;;;;;;;53.86;7.79;99823.44;6183833;23;20101;-77
2022/07/03 08:39:30;;;;;;;5.43;4.78;;;;;;;54.45;7.30;99834.13;6132287;23;20225;-75
2022/07/03 08:42:00;;;;;;;5.60;5.07;;;;;;;53.66;7.76;99819.03;6183286;23;20477;-80
2022/07/03 08:44:30;;;;;;;5.78;5.28;;;;;;;52.74;8.53;99816.38;6157689;23;20072;-79
2022/07/03 08:46:59;;;;;;;16.70;15.35;;;;;;;53.35;7.89;99805.63;6185879;23;20017;-79
2022/07/03 08:49:25;;;;;;;;;;;;;;;53.85;7.83;99823.78;6185947;23;20248;-78
2022/07/03 08:51:53;;;;;;;6.78;5.20;;;;;;;54.55;7.80;99821.16;6183658;23;19916;-78
2022/07/03 08:54:19;;;;;;;14.52;13.23;;;;;;;53.50;7.89;99817.63;6182059;23;20017;-78
2022/07/03 08:56:47;;;;;;;6.65;6.05;;;;;;;53.70;7.85;99813.72;6182033;23;20021;-76
2022/07/03 08:59:17;;;;;;;6.80;6.30;;;;;;;54.62;7.99;99811.28;6132968;23;20394;-79
2022/07/03 09:01:47;;;;;;;8.98;5.28;;;;;;;54.99;7.71;99802.19;6182362;23;20017;-78
2022/07/03 09:04:13;;;;;;;7.20;6.65;;;;;;;55.57;6.95;99822.06;6182086;23;20023;-78
2022/07/03 09:06:41;;;;;;;6.38;5.18;;;;;;;55.51;6.90;99812.97;6181887;23;20100;-78
2022/07/03 09:09:15;;;;;;;5.00;4.70;;;;;;;55.41;6.97;99818.81;6183523;23;20792;-78
2022/07/03 09:11:45;;;;;;;6.20;5.03;;;;;;;55.19;6.67;99812.06;6158591;23;20024;-78
2022/07/03 09:14:28;;;;;;;6.43;5.88;;;;;;;54.73;6.80;99800.75;6158647;23;20047;-77
2022/07/03 09:17:02;;;;;;;10.00;9.20;;;;;;;54.58;7.20;99807.44;6186837;23;20083;-77
2022/07/03 09:19:59;;;;;;;25.50;23.35;;;;;;;53.40;7.38;99799.97;6159003;23;20025;-78
2022/07/03 09:22:32;;;;;;;10.05;9.18;;;;;;;51.12;8.57;99801.25;6169982;23;20269;-78
2022/07/03 09:25:14;;;;;;;6.10;5.60;;;;;;;49.08;9.75;99799.88;6181763;23;20017;-78
2022/07/03 09:27:51;;;;;;;6.03;5.53;;;;;;;48.58;10.01;99791.88;6182215;23;20017;-79
2022/07/03 09:30:17;;;;;;;6.70;5.20;;;;;;;49.52;9.64;99793.13;6181783;23;20021;-78
2022/07/03 09:32:48;;;;;;;5.60;5.10;;;;;;;50.52;9.49;99788.19;6182946;23;20380;-78
2022/07/03 09:35:28;;;;;;;6.18;5.68;;;;;;;50.97;9.47;99793.03;6182166;23;20021;-78
2022/07/03 09:38:13;;;;;;;5.47;4.97;;;;;;;51.25;8.60;99793.47;6181423;23;20044;-77
2022/07/03 09:40:51;;;;;;;7.55;6.80;;;;;;;51.36;8.59;99792.28;6135042;23;20025;-77
2022/07/03 09:43:42;;;;;;;7.33;6.73;;;;;;;50.81;8.87;99795.00;6181790;23;20021;-78
2022/07/03 09:46:08;;;;;;;5.32;4.93;;;;;;;50.22;9.16;99798.16;6182752;23;20157;-77
2022/07/03 09:48:42;;;;;;;7.57;6.78;;;;;;;50.87;9.01;99777.28;6180927;23;20023;-76
2022/07/03 09:51:19;;;;;;;9.73;8.82;;;;;;;51.98;8.95;99794.63;6182308;23;20021;-80
2022/07/03 09:54:03;;;;;;;5.95;5.45;;;;;;;51.21;8.56;99793.19;6132571;23;20362;-79
2022/07/03 09:56:42;;;;;;;5.50;5.10;;;;;;;48.83;9.14;99760.84;6157704;23;20111;-78
2022/07/03 09:59:15;;;;;;;6.47;5.30;;;;;;;47.82;10.46;99785.47;6183128;23;20402;-77
2022/07/03 10:01:50;;;;;;;5.43;5.03;;;;;;;47.41;10.42;99774.03;6157866;23;20104;-76
2022/07/03 10:04:17;;;;;;;;;;;;;;;48.16;10.37;99785.25;6181623;23;20012;-77
2022/07/03 10:06:56;;;;;;;5.22;4.70;;;;;;;49.26;9.90;99780.06;6181161;23;19935;-77
2022/07/03 10:09:24;;;;;;;;;;;;;;;49.86;9.53;99792.63;6182154;23;20056;-78
2022/07/03 10:11:51;;;;;;;5.53;4.63;;;;;;;50.25;9.57;99788.50;6186503;23;19916;-78
2022/07/03 10:14:19;;;;;;;5.65;5.05;;;;;;;50.68;9.21;99785.34;6185792;23;20017;-76
2022/07/03 10:16:47;;;;;;;5.25;4.75;;;;;;;50.87;9.24;99785.59;6157300;23;20031;-79
2022/07/03 10:19:21;;;;;;;4.97;4.57;;;;;;;50.71;8.90;99785.63;6186161;23;20032;-79
2022/07/03 10:21:52;;;;;;;5.57;5.07;;;;;;;50.37;9.18;99779.91;6185673;23;20020;-78
2022/07/03 10:24:20;;;;;;;5.18;4.70;;;;;;;50.30;9.33;99778.25;6188435;23;20100;-78
2022/07/03 10:26:48;;;;;;;5.45;4.95;;;;;;;50.08;9.02;99778.53;6184686;23;20020;-75
2022/07/03 10:29:15;;;;;;;4.78;4.40;;;;;;;48.99;9.41;99780.22;6183300;23;20021;-77
2022/07/03 10:31:45;;;;;;;5.10;4.28;;;;;;;47.29;10.43;99777.78;6184460;23;20013;-75
2022/07/03 10:34:11;;;;;;;;;;;;;;;45.95;11.19;99767.59;6182603;23;20024;-77
2022/07/03 10:36:38;;;;;;;5.32;4.72;;;;;;;44.81;11.78;99773.59;6182606;23;19912;-79
2022/07/03 10:39:06;;;;;;;5.55;5.05;;;;;;;43.99;12.76;99773.31;6182437;23;20060;-78
2022/07/03 10:47:40;;;;;;;4.88;4.38;;;;;;;41.64;14.53;99775.72;6156438;23;20083;-77
2022/07/03 10:50:11;;;;;;;4.53;4.22;;;;;;;40.70;14.95;99776.03;6181137;23;20406;-79
2022/07/03 10:52:38;;;;;;;4.78;4.28;;;;;;;40.00;15.13;99777.25;6186616;23;20017;-78
2022/07/03 10:55:06;;;;;;;4.60;4.30;;;;;;;39.15;15.73;99771.09;6184449;23;20044;-77
2022/07/03 10:57:34;;;;;;;5.13;4.70;;;;;;;38.66;16.66;99778.34;6131994;23;20016;-76
2022/07/03 11:00:01;;;;;;;6.75;5.30;;;;;;;38.53;16.76;99778.22;6132398;23;20021;-77
2022/07/03 11:02:39;;;;;;;5.68;4.50;;;;;;;38.27;17.14;99766.09;6182861;23;20036;-79
2022/07/03 11:05:06;;;;;;;5.90;4.68;;;;;;;37.98;17.16;99771.47;6182527;23;20116;-79
2022/07/03 11:07:54;;;;;;;5.40;4.75;;;;;;;37.74;17.33;99771.84;6182953;23;20024;-77
2022/07/03 11:10:23;;;;;;;5.10;4.70;;;;;;;37.44;18.38;99770.03;6159924;23;20025;-76
2022/07/03 11:12:56;;;;;;;5.57;4.72;;;;;;;37.13;18.64;99764.81;6188022;23;20042;-77
2022/07/03 11:15:42;;;;;;;6.20;4.40;;;;;;;36.75;18.57;99760.31;6194802;23;20016;-79
2022/07/03 11:18:28;;;;;;;5.40;4.90;;;;;;;36.30;18.58;99754.81;6184957;23;20021;-80
2022/07/03 11:20:54;;;;;;;4.90;4.50;;;;;;;36.07;18.96;99768.38;6157060;23;20044;-79
2022/07/03 11:23:27;;;;;;;5.22;4.72;;;;;;;35.79;19.47;99756.19;6157957;23;20017;-78
2022/07/03 11:26:22;;;;;;;4.72;4.32;;;;;;;35.49;19.67;99756.03;6184877;23;20035;-78
2022/07/03 11:28:53;;;;;;;5.72;4.75;;;;;;;35.17;20.39;99747.03;6166263;23;20021;-77
2022/07/03 11:31:22;;;;;;;5.88;4.70;;;;;;;35.01;20.11;99752.50;6174270;23;20017;-79
2022/07/03 11:33:51;;;;;;;5.28;4.88;;;;;;;34.71;20.48;99760.31;6184671;23;20021;-78
2022/07/03 11:36:17;;;;;;;5.40;4.75;;;;;;;34.49;21.15;99760.88;6157519;23;20013;-76
2022/07/03 11:38:46;;;;;;;5.35;4.50;;;;;;;34.16;21.61;99766.25;6164041;23;20351;-77
2022/07/03 11:41:14;;;;;;;10.23;4.93;;;;;;;34.03;21.86;99769.44;6135919;23;20021;-75
2022/07/03 11:44:01;;;;;;;5.45;4.97;;;;;;;33.93;22.09;99777.69;6182118;23;20021;-78
2022/07/03 11:46:30;;;;;;;5.32;4.82;;;;;;;33.77;22.25;99759.59;6180757;23;20450;-79
2022/07/03 11:49:15;;;;;;;4.65;4.25;;;;;;;33.64;22.13;99760.09;6184537;23;20016;-77
2022/07/03 11:51:43;;;;;;;4.75;4.25;;;;;;;33.54;22.17;99755.84;6182931;23;20024;-75
2022/07/03 11:54:09;;;;;;;7.53;4.97;;;;;;;33.32;22.50;99742.78;6184242;23;20017;-79
2022/07/03 11:56:38;;;;;;;10.75;9.55;;;;;;;33.45;22.41;99741.47;6182884;23;20064;-81
2022/07/03 11:59:06;;;;;;;5.10;4.07;;;;;;;33.41;22.78;99745.53;6184419;23;20016;-76
2022/07/03 12:01:37;;;;;;;5.28;4.43;;;;;;;33.35;23.21;99764.03;6184188;23;20092;-78
2022/07/03 12:04:14;;;;;;;5.68;4.53;;;;;;;33.23;23.18;99759.91;6182708;23;20110;-76